Ora, IN (46968)

5:18 AM CDT on September 20, 2014 (GMT -0500)
East of Town | Change Station
CLOSE
Current Station
Personal Weather Station
Location: North Judson, IN
Elevation: 700 ft
Nearby Weather Stations

Elev 700 ft 41.24 °N, 86.72 °W | Updated 3 minutes ago

Clear
Clear
55.1 °F
Feels Like 55.1 °F
N
2.0
Wind Variable Wind from South
Gusts 9.0 mph

Today
High -- | Low -- °F
--% Chance of Precip.
Yesterday
High -- | Low -- °F
Precip. -- in
6:31 AM 6:46 PM
Waning Crescent, 13% visible
Pressure 29.98 in
Visibility 10.0 miles
Clouds Clear
Dew Point 52 °F
Humidity 89%
Rainfall 0.00 in
Snow Depth Not available.
UV 0 out of 12
Pollen 6.20 out of 12
Air Quality Not available.
Flu Activity Not available.
METAR KOXI 200955Z AUTO 19005KT 10SM CLR 13/10 A2998 RMK AO1 T01260098

More Conditions Fewer Conditions

Pressure 29.98 in
Visibility 10.0 miles
Clouds Clear
Dew Point 52 °F
Humidity 89%
Rainfall 0.00 in
Snow Depth Not available.
UV 0 out of 12
Pollen 6.20 out of 12
Air Quality Not available.
Flu Activity Not available.
METAR KOXI 200955Z AUTO 19005KT 10SM CLR 13/10 A2998 RMK AO1 T01260098

More Conditions Fewer Conditions

10-Day Weather Forecast

Almanac

Astronomy

Sep. 20, 2014 Rise Set
Actual Time 6:31 AM CDT 6:46 PM CDT
Civil Twilight 6:04 AM CDT 7:14 PM CDT
Nautical Twilight 5:31 AM CDT 7:46 PM CDT
Astronomical Twilight 4:58 AM CDT 8:19 PM CDT
Moon 3:08 AM CDT 4:51 PM CDT
Length of Visible Light 13h 10m
Length of Day
12h 15m
Tomorrow will be 2m 42s shorter.
Waning Crescent, 13% of the Moon is Illuminated
Today
Waning Crescent
Sep 24
New
Oct 1
First Quarter
Oct 8
Full
Oct 15
Last Quarter

Today's Extremes

State Highs State Lows

Community

WunderPhotos

Upload Photos

1,754,824 photos uploaded!

WunderBlogs® & News

Nearby

Snow Depth

Station Depth Elevation
No new snow has been reported.

Earthquake Activity

City Distance Mag. Time & Date
No recent earthquake activity has been reported nearby.
Minimum magnitude displayed is 2.5.

Coastal Water Temperatures

Place Temperature
No Stations Reporting

Nearby Weather Stations